sensor_id;sensor_type;location;lat;lon;timestamp;P1;durP1;ratioP1;P2;durP2;ratioP2
12163;SDS011;6145;50.192;10.064;2024-03-17T00:01:51;6.37;;;4.33;;
12163;SDS011;6145;50.192;10.064;2024-03-17T00:04:16;4.20;;;3.90;;
12163;SDS011;6145;50.192;10.064;2024-03-17T00:06:45;3.70;;;3.40;;
12163;SDS011;6145;50.192;10.064;2024-03-17T00:09:11;6.13;;;4.30;;
12163;SDS011;6145;50.192;10.064;2024-03-17T00:11:38;5.57;;;3.70;;
12163;SDS011;6145;50.192;10.064;2024-03-17T00:14:04;5.40;;;3.63;;
12163;SDS011;6145;50.192;10.064;2024-03-17T00:16:31;3.97;;;3.37;;
12163;SDS011;6145;50.192;10.064;2024-03-17T00:18:58;4.53;;;3.83;;
12163;SDS011;6145;50.192;10.064;2024-03-17T00:21:24;3.47;;;3.17;;
12163;SDS011;6145;50.192;10.064;2024-03-17T00:23:52;4.77;;;3.87;;
12163;SDS011;6145;50.192;10.064;2024-03-17T00:26:19;3.70;;;3.30;;
12163;SDS011;6145;50.192;10.064;2024-03-17T00:28:45;3.87;;;3.53;;
12163;SDS011;6145;50.192;10.064;2024-03-17T00:31:15;4.70;;;3.83;;
12163;SDS011;6145;50.192;10.064;2024-03-17T00:33:41;5.03;;;3.73;;
12163;SDS011;6145;50.192;10.064;2024-03-17T00:36:09;5.60;;;4.00;;
12163;SDS011;6145;50.192;10.064;2024-03-17T00:38:35;4.43;;;4.00;;
12163;SDS011;6145;50.192;10.064;2024-03-17T00:41:03;4.87;;;4.47;;
12163;SDS011;6145;50.192;10.064;2024-03-17T00:43:29;4.73;;;3.97;;
12163;SDS011;6145;50.192;10.064;2024-03-17T00:45:56;4.47;;;4.07;;
12163;SDS011;6145;50.192;10.064;2024-03-17T00:48:23;4.50;;;4.07;;
12163;SDS011;6145;50.192;10.064;2024-03-17T00:50:54;4.73;;;4.27;;
12163;SDS011;6145;50.192;10.064;2024-03-17T00:53:20;4.83;;;4.43;;
12163;SDS011;6145;50.192;10.064;2024-03-17T00:55:50;4.77;;;4.30;;
12163;SDS011;6145;50.192;10.064;2024-03-17T00:58:18;6.00;;;4.20;;
12163;SDS011;6145;50.192;10.064;2024-03-17T01:00:45;5.10;;;4.60;;
12163;SDS011;6145;50.192;10.064;2024-03-17T01:03:12;5.03;;;4.53;;
12163;SDS011;6145;50.192;10.064;2024-03-17T01:05:39;6.17;;;4.67;;
12163;SDS011;6145;50.192;10.064;2024-03-17T01:08:07;5.20;;;4.77;;
12163;SDS011;6145;50.192;10.064;2024-03-17T01:10:36;5.83;;;5.03;;
12163;SDS011;6145;50.192;10.064;2024-03-17T01:13:03;6.07;;;5.10;;
12163;SDS011;6145;50.192;10.064;2024-03-17T01:15:31;5.20;;;4.70;;
12163;SDS011;6145;50.192;10.064;2024-03-17T01:17:57;5.50;;;5.00;;
12163;SDS011;6145;50.192;10.064;2024-03-17T01:20:24;6.57;;;5.20;;
12163;SDS011;6145;50.192;10.064;2024-03-17T01:22:50;5.60;;;5.10;;
12163;SDS011;6145;50.192;10.064;2024-03-17T01:25:17;5.90;;;5.30;;
12163;SDS011;6145;50.192;10.064;2024-03-17T01:27:43;5.03;;;4.63;;
12163;SDS011;6145;50.192;10.064;2024-03-17T01:30:10;5.93;;;5.33;;
12163;SDS011;6145;50.192;10.064;2024-03-17T01:32:38;6.67;;;5.17;;
12163;SDS011;6145;50.192;10.064;2024-03-17T01:35:05;6.70;;;5.33;;
12163;SDS011;6145;50.192;10.064;2024-03-17T01:37:31;5.47;;;4.97;;
12163;SDS011;6145;50.192;10.064;2024-03-17T01:39:58;5.87;;;5.27;;
12163;SDS011;6145;50.192;10.064;2024-03-17T01:42:24;6.83;;;5.37;;
12163;SDS011;6145;50.192;10.064;2024-03-17T01:44:51;5.87;;;5.33;;
12163;SDS011;6145;50.192;10.064;2024-03-17T01:47:17;6.27;;;5.50;;
12163;SDS011;6145;50.192;10.064;2024-03-17T01:49:45;6.23;;;5.60;;
12163;SDS011;6145;50.192;10.064;2024-03-17T01:52:12;5.97;;;5.37;;
12163;SDS011;6145;50.192;10.064;2024-03-17T01:54:39;6.53;;;5.83;;
12163;SDS011;6145;50.192;10.064;2024-03-17T01:57:06;6.63;;;6.03;;
12163;SDS011;6145;50.192;10.064;2024-03-17T01:59:33;6.00;;;5.47;;
12163;SDS011;6145;50.192;10.064;2024-03-17T02:01:59;7.00;;;6.30;;
12163;SDS011;6145;50.192;10.064;2024-03-17T02:04:26;6.63;;;6.03;;
12163;SDS011;6145;50.192;10.064;2024-03-17T02:06:53;6.37;;;5.80;;
12163;SDS011;6145;50.192;10.064;2024-03-17T02:09:20;6.17;;;5.57;;
12163;SDS011;6145;50.192;10.064;2024-03-17T02:11:47;6.87;;;6.20;;
12163;SDS011;6145;50.192;10.064;2024-03-17T02:14:14;6.50;;;5.40;;
12163;SDS011;6145;50.192;10.064;2024-03-17T02:16:42;6.50;;;5.73;;
12163;SDS011;6145;50.192;10.064;2024-03-17T02:19:09;6.80;;;5.90;;
12163;SDS011;6145;50.192;10.064;2024-03-17T02:21:35;6.80;;;5.70;;
12163;SDS011;6145;50.192;10.064;2024-03-17T02:24:04;7.40;;;6.10;;
12163;SDS011;6145;50.192;10.064;2024-03-17T02:26:30;6.73;;;6.13;;
12163;SDS011;6145;50.192;10.064;2024-03-17T02:28:56;7.33;;;6.63;;
12163;SDS011;6145;50.192;10.064;2024-03-17T02:31:22;10.83;;;7.10;;
12163;SDS011;6145;50.192;10.064;2024-03-17T02:33:49;7.87;;;6.23;;
12163;SDS011;6145;50.192;10.064;2024-03-17T02:36:15;7.63;;;7.03;;
12163;SDS011;6145;50.192;10.064;2024-03-17T02:38:42;10.23;;;7.70;;
12163;SDS011;6145;50.192;10.064;2024-03-17T02:41:28;8.10;;;6.70;;
12163;SDS011;6145;50.192;10.064;2024-03-17T02:43:55;8.03;;;6.53;;
12163;SDS011;6145;50.192;10.064;2024-03-17T02:46:22;6.70;;;6.10;;
12163;SDS011;6145;50.192;10.064;2024-03-17T02:48:50;7.23;;;6.27;;
12163;SDS011;6145;50.192;10.064;2024-03-17T02:51:18;8.30;;;6.57;;
12163;SDS011;6145;50.192;10.064;2024-03-17T02:53:46;7.33;;;6.63;;
12163;SDS011;6145;50.192;10.064;2024-03-17T02:56:14;7.37;;;6.67;;
12163;SDS011;6145;50.192;10.064;2024-03-17T02:58:43;7.50;;;6.67;;
12163;SDS011;6145;50.192;10.064;2024-03-17T03:01:11;8.17;;;7.30;;
12163;SDS011;6145;50.192;10.064;2024-03-17T03:03:38;7.27;;;6.57;;
12163;SDS011;6145;50.192;10.064;2024-03-17T03:06:05;8.30;;;7.27;;
12163;SDS011;6145;50.192;10.064;2024-03-17T03:08:34;9.07;;;7.00;;
12163;SDS011;6145;50.192;10.064;2024-03-17T03:11:03;7.57;;;6.60;;
12163;SDS011;6145;50.192;10.064;2024-03-17T03:13:31;7.53;;;6.53;;
12163;SDS011;6145;50.192;10.064;2024-03-17T03:16:00;7.50;;;6.57;;
12163;SDS011;6145;50.192;10.064;2024-03-17T03:18:26;7.33;;;6.63;;
12163;SDS011;6145;50.192;10.064;2024-03-17T03:20:53;8.07;;;7.13;;
12163;SDS011;6145;50.192;10.064;2024-03-17T03:23:20;7.67;;;6.77;;
12163;SDS011;6145;50.192;10.064;2024-03-17T03:25:47;7.80;;;6.93;;
12163;SDS011;6145;50.192;10.064;2024-03-17T03:28:20;8.30;;;7.40;;
12163;SDS011;6145;50.192;10.064;2024-03-17T03:30:47;8.40;;;7.50;;
12163;SDS011;6145;50.192;10.064;2024-03-17T03:33:15;8.83;;;6.93;;
12163;SDS011;6145;50.192;10.064;2024-03-17T03:35:43;7.60;;;6.90;;
12163;SDS011;6145;50.192;10.064;2024-03-17T03:38:10;8.23;;;7.43;;
12163;SDS011;6145;50.192;10.064;2024-03-17T03:40:38;8.37;;;7.47;;
12163;SDS011;6145;50.192;10.064;2024-03-17T03:43:05;9.70;;;7.20;;
12163;SDS011;6145;50.192;10.064;2024-03-17T03:45:33;10.27;;;6.83;;
12163;SDS011;6145;50.192;10.064;2024-03-17T03:48:00;9.00;;;7.80;;
12163;SDS011;6145;50.192;10.064;2024-03-17T03:50:29;7.90;;;7.07;;
12163;SDS011;6145;50.192;10.064;2024-03-17T03:52:56;8.77;;;7.83;;
12163;SDS011;6145;50.192;10.064;2024-03-17T03:55:23;9.03;;;8.03;;
12163;SDS011;6145;50.192;10.064;2024-03-17T03:57:50;8.63;;;7.73;;
12163;SDS011;6145;50.192;10.064;2024-03-17T04:00:17;10.23;;;7.50;;
12163;SDS011;6145;50.192;10.064;2024-03-17T04:02:46;8.10;;;7.30;;
12163;SDS011;6145;50.192;10.064;2024-03-17T04:05:14;9.13;;;7.50;;
12163;SDS011;6145;50.192;10.064;2024-03-17T04:07:42;10.47;;;8.47;;
12163;SDS011;6145;50.192;10.064;2024-03-17T04:10:11;9.63;;;7.73;;
12163;SDS011;6145;50.192;10.064;2024-03-17T04:12:38;8.43;;;7.63;;
12163;SDS011;6145;50.192;10.064;2024-03-17T04:15:05;10.70;;;8.43;;
12163;SDS011;6145;50.192;10.064;2024-03-17T04:17:35;9.40;;;8.40;;
12163;SDS011;6145;50.192;10.064;2024-03-17T04:20:02;8.03;;;7.23;;
12163;SDS011;6145;50.192;10.064;2024-03-17T04:22:29;18.37;;;8.53;;
12163;SDS011;6145;50.192;10.064;2024-03-17T04:24:58;9.27;;;7.80;;
12163;SDS011;6145;50.192;10.064;2024-03-17T04:27:25;9.47;;;7.90;;
12163;SDS011;6145;50.192;10.064;2024-03-17T04:29:52;9.63;;;7.67;;
12163;SDS011;6145;50.192;10.064;2024-03-17T04:32:19;8.93;;;8.10;;
12163;SDS011;6145;50.192;10.064;2024-03-17T04:34:46;9.00;;;7.70;;
12163;SDS011;6145;50.192;10.064;2024-03-17T04:37:13;9.37;;;7.50;;
12163;SDS011;6145;50.192;10.064;2024-03-17T04:39:40;8.87;;;7.47;;
12163;SDS011;6145;50.192;10.064;2024-03-17T04:42:09;7.90;;;7.10;;
12163;SDS011;6145;50.192;10.064;2024-03-17T04:44:36;8.07;;;7.27;;
12163;SDS011;6145;50.192;10.064;2024-03-17T04:47:03;9.33;;;7.93;;
12163;SDS011;6145;50.192;10.064;2024-03-17T04:49:31;8.63;;;7.73;;
12163;SDS011;6145;50.192;10.064;2024-03-17T04:51:58;9.30;;;7.97;;
12163;SDS011;6145;50.192;10.064;2024-03-17T04:54:25;8.27;;;7.40;;
12163;SDS011;6145;50.192;10.064;2024-03-17T04:56:52;7.97;;;7.17;;
12163;SDS011;6145;50.192;10.064;2024-03-17T04:59:20;8.93;;;8.10;;
12163;SDS011;6145;50.192;10.064;2024-03-17T05:01:47;10.10;;;7.50;;
12163;SDS011;6145;50.192;10.064;2024-03-17T05:04:13;10.10;;;9.03;;
12163;SDS011;6145;50.192;10.064;2024-03-17T05:06:40;10.80;;;9.07;;
12163;SDS011;6145;50.192;10.064;2024-03-17T05:09:11;10.47;;;9.03;;
12163;SDS011;6145;50.192;10.064;2024-03-17T05:11:39;9.97;;;8.40;;
12163;SDS011;6145;50.192;10.064;2024-03-17T05:14:06;8.73;;;7.83;;
12163;SDS011;6145;50.192;10.064;2024-03-17T05:16:34;8.20;;;7.40;;
12163;SDS011;6145;50.192;10.064;2024-03-17T05:19:00;10.03;;;7.90;;
12163;SDS011;6145;50.192;10.064;2024-03-17T05:21:28;9.97;;;8.63;;
12163;SDS011;6145;50.192;10.064;2024-03-17T05:23:56;9.90;;;8.93;;
12163;SDS011;6145;50.192;10.064;2024-03-17T05:26:23;9.50;;;8.50;;
12163;SDS011;6145;50.192;10.064;2024-03-17T05:28:50;11.27;;;8.67;;
12163;SDS011;6145;50.192;10.064;2024-03-17T05:31:17;11.40;;;8.50;;
12163;SDS011;6145;50.192;10.064;2024-03-17T05:33:47;9.87;;;8.40;;
12163;SDS011;6145;50.192;10.064;2024-03-17T05:36:13;11.70;;;8.93;;
12163;SDS011;6145;50.192;10.064;2024-03-17T05:38:41;9.90;;;8.37;;
12163;SDS011;6145;50.192;10.064;2024-03-17T05:41:08;9.37;;;8.33;;
12163;SDS011;6145;50.192;10.064;2024-03-17T05:43:36;9.67;;;8.70;;
12163;SDS011;6145;50.192;10.064;2024-03-17T05:46:04;8.40;;;7.50;;
12163;SDS011;6145;50.192;10.064;2024-03-17T05:48:32;9.13;;;8.10;;
12163;SDS011;6145;50.192;10.064;2024-03-17T05:51:01;9.27;;;8.07;;
12163;SDS011;6145;50.192;10.064;2024-03-17T05:53:28;8.70;;;7.90;;
12163;SDS011;6145;50.192;10.064;2024-03-17T05:55:58;11.07;;;8.17;;
12163;SDS011;6145;50.192;10.064;2024-03-17T05:58:24;9.70;;;8.67;;
12163;SDS011;6145;50.192;10.064;2024-03-17T06:00:51;8.83;;;8.03;;
12163;SDS011;6145;50.192;10.064;2024-03-17T06:03:18;8.90;;;7.13;;
12163;SDS011;6145;50.192;10.064;2024-03-17T06:05:46;8.30;;;7.50;;
12163;SDS011;6145;50.192;10.064;2024-03-17T06:08:15;12.57;;;9.63;;
12163;SDS011;6145;50.192;10.064;2024-03-17T06:10:42;13.77;;;11.47;;
12163;SDS011;6145;50.192;10.064;2024-03-17T06:13:10;8.90;;;8.07;;
12163;SDS011;6145;50.192;10.064;2024-03-17T06:15:38;8.83;;;7.93;;
12163;SDS011;6145;50.192;10.064;2024-03-17T06:18:05;11.53;;;8.30;;
12163;SDS011;6145;50.192;10.064;2024-03-17T06:20:34;8.47;;;7.67;;
12163;SDS011;6145;50.192;10.064;2024-03-17T06:23:01;9.50;;;8.10;;
12163;SDS011;6145;50.192;10.064;2024-03-17T06:25:29;8.67;;;7.77;;
12163;SDS011;6145;50.192;10.064;2024-03-17T06:27:56;9.27;;;8.37;;
12163;SDS011;6145;50.192;10.064;2024-03-17T06:30:23;8.03;;;7.23;;
12163;SDS011;6145;50.192;10.064;2024-03-17T06:32:49;8.93;;;8.03;;
12163;SDS011;6145;50.192;10.064;2024-03-17T06:35:17;9.73;;;8.10;;
12163;SDS011;6145;50.192;10.064;2024-03-17T06:37:44;8.10;;;7.33;;
12163;SDS011;6145;50.192;10.064;2024-03-17T06:40:11;8.33;;;7.07;;
12163;SDS011;6145;50.192;10.064;2024-03-17T06:42:41;7.13;;;6.43;;
12163;SDS011;6145;50.192;10.064;2024-03-17T06:45:08;6.17;;;5.67;;
12163;SDS011;6145;50.192;10.064;2024-03-17T06:47:35;7.13;;;5.90;;
12163;SDS011;6145;50.192;10.064;2024-03-17T06:50:02;7.07;;;4.77;;
12163;SDS011;6145;50.192;10.064;2024-03-17T06:52:29;5.90;;;5.30;;
12163;SDS011;6145;50.192;10.064;2024-03-17T06:54:56;11.23;;;8.60;;
12163;SDS011;6145;50.192;10.064;2024-03-17T06:57:23;6.20;;;5.30;;
12163;SDS011;6145;50.192;10.064;2024-03-17T06:59:52;8.57;;;6.10;;
12163;SDS011;6145;50.192;10.064;2024-03-17T07:02:18;8.90;;;5.83;;
12163;SDS011;6145;50.192;10.064;2024-03-17T07:04:45;6.40;;;5.80;;
12163;SDS011;6145;50.192;10.064;2024-03-17T07:07:13;5.80;;;5.20;;
12163;SDS011;6145;50.192;10.064;2024-03-17T07:09:40;4.83;;;4.43;;
12163;SDS011;6145;50.192;10.064;2024-03-17T07:12:07;6.03;;;4.67;;
12163;SDS011;6145;50.192;10.064;2024-03-17T07:14:34;4.83;;;4.33;;
12163;SDS011;6145;50.192;10.064;2024-03-17T07:17:03;5.43;;;4.00;;
12163;SDS011;6145;50.192;10.064;2024-03-17T07:19:30;6.20;;;4.40;;
12163;SDS011;6145;50.192;10.064;2024-03-17T07:21:57;6.43;;;4.80;;
12163;SDS011;6145;50.192;10.064;2024-03-17T07:24:24;5.83;;;5.23;;
12163;SDS011;6145;50.192;10.064;2024-03-17T07:26:52;5.57;;;4.90;;
12163;SDS011;6145;50.192;10.064;2024-03-17T07:29:19;5.17;;;4.07;;
12163;SDS011;6145;50.192;10.064;2024-03-17T07:31:46;5.67;;;4.27;;
12163;SDS011;6145;50.192;10.064;2024-03-17T07:34:14;4.93;;;4.07;;
12163;SDS011;6145;50.192;10.064;2024-03-17T07:36:41;4.87;;;4.37;;
12163;SDS011;6145;50.192;10.064;2024-03-17T07:39:08;7.97;;;4.57;;
12163;SDS011;6145;50.192;10.064;2024-03-17T07:41:37;5.80;;;4.40;;
12163;SDS011;6145;50.192;10.064;2024-03-17T07:44:04;5.07;;;4.57;;
12163;SDS011;6145;50.192;10.064;2024-03-17T07:46:30;7.27;;;4.73;;
12163;SDS011;6145;50.192;10.064;2024-03-17T07:48:57;5.10;;;4.37;;
12163;SDS011;6145;50.192;10.064;2024-03-17T07:51:25;5.73;;;4.53;;
12163;SDS011;6145;50.192;10.064;2024-03-17T07:53:52;5.63;;;4.40;;
12163;SDS011;6145;50.192;10.064;2024-03-17T07:56:18;5.90;;;5.30;;
12163;SDS011;6145;50.192;10.064;2024-03-17T07:58:45;5.43;;;4.90;;
12163;SDS011;6145;50.192;10.064;2024-03-17T08:01:15;4.87;;;4.37;;
12163;SDS011;6145;50.192;10.064;2024-03-17T08:03:44;4.73;;;4.30;;
12163;SDS011;6145;50.192;10.064;2024-03-17T08:06:14;5.20;;;4.67;;
12163;SDS011;6145;50.192;10.064;2024-03-17T08:08:42;6.27;;;5.27;;
12163;SDS011;6145;50.192;10.064;2024-03-17T08:11:09;7.07;;;5.07;;
12163;SDS011;6145;50.192;10.064;2024-03-17T08:13:36;5.17;;;4.60;;
12163;SDS011;6145;50.192;10.064;2024-03-17T08:16:03;5.03;;;4.20;;
12163;SDS011;6145;50.192;10.064;2024-03-17T08:18:31;6.00;;;4.60;;
12163;SDS011;6145;50.192;10.064;2024-03-17T08:20:59;5.30;;;4.80;;
12163;SDS011;6145;50.192;10.064;2024-03-17T08:23:26;6.03;;;4.63;;
12163;SDS011;6145;50.192;10.064;2024-03-17T08:25:54;3.80;;;3.50;;
12163;SDS011;6145;50.192;10.064;2024-03-17T08:28:21;6.00;;;4.53;;
12163;SDS011;6145;50.192;10.064;2024-03-17T08:30:52;4.70;;;3.80;;
12163;SDS011;6145;50.192;10.064;2024-03-17T08:33:19;6.40;;;3.95;;
12163;SDS011;6145;50.192;10.064;2024-03-17T08:35:53;4.55;;;4.10;;
12163;SDS011;6145;50.192;10.064;2024-03-17T08:38:20;3.83;;;3.50;;
12163;SDS011;6145;50.192;10.064;2024-03-17T08:40:48;4.82;;;3.70;;
12163;SDS011;6145;50.192;10.064;2024-03-17T08:43:16;4.88;;;3.60;;
12163;SDS011;6145;50.192;10.064;2024-03-17T08:45:43;4.00;;;3.30;;
12163;SDS011;6145;50.192;10.064;2024-03-17T08:48:10;4.57;;;4.18;;
12163;SDS011;6145;50.192;10.064;2024-03-17T08:50:37;3.90;;;3.60;;
12163;SDS011;6145;50.192;10.064;2024-03-17T08:53:05;3.80;;;3.50;;
12163;SDS011;6145;50.192;10.064;2024-03-17T08:55:32;4.32;;;3.90;;
12163;SDS011;6145;50.192;10.064;2024-03-17T08:57:59;4.38;;;4.07;;
12163;SDS011;6145;50.192;10.064;2024-03-17T09:00:27;4.30;;;3.97;;
12163;SDS011;6145;50.192;10.064;2024-03-17T09:02:55;4.90;;;4.38;;
12163;SDS011;6145;50.192;10.064;2024-03-17T09:05:22;4.78;;;4.35;;
12163;SDS011;6145;50.192;10.064;2024-03-17T09:07:48;4.93;;;4.53;;
12163;SDS011;6145;50.192;10.064;2024-03-17T09:10:15;3.67;;;3.38;;
12163;SDS011;6145;50.192;10.064;2024-03-17T09:12:42;4.25;;;3.45;;
12163;SDS011;6145;50.192;10.064;2024-03-17T09:15:09;4.15;;;3.75;;
12163;SDS011;6145;50.192;10.064;2024-03-17T09:17:38;4.45;;;3.88;;
12163;SDS011;6145;50.192;10.064;2024-03-17T09:20:05;4.28;;;3.88;;
12163;SDS011;6145;50.192;10.064;2024-03-17T09:22:36;4.13;;;3.72;;
12163;SDS011;6145;50.192;10.064;2024-03-17T09:25:05;4.25;;;3.83;;
12163;SDS011;6145;50.192;10.064;2024-03-17T09:27:34;4.20;;;3.80;;
12163;SDS011;6145;50.192;10.064;2024-03-17T09:30:02;4.63;;;4.22;;
12163;SDS011;6145;50.192;10.064;2024-03-17T09:32:31;4.65;;;4.00;;
12163;SDS011;6145;50.192;10.064;2024-03-17T09:34:59;5.03;;;4.15;;
12163;SDS011;6145;50.192;10.064;2024-03-17T09:37:26;4.28;;;3.83;;
12163;SDS011;6145;50.192;10.064;2024-03-17T09:39:56;4.30;;;4.00;;
12163;SDS011;6145;50.192;10.064;2024-03-17T09:42:23;3.85;;;3.55;;
12163;SDS011;6145;50.192;10.064;2024-03-17T09:44:50;4.53;;;4.18;;
12163;SDS011;6145;50.192;10.064;2024-03-17T09:47:20;4.25;;;3.85;;
12163;SDS011;6145;50.192;10.064;2024-03-17T09:49:47;3.92;;;3.63;;
12163;SDS011;6145;50.192;10.064;2024-03-17T09:52:19;4.68;;;3.40;;
12163;SDS011;6145;50.192;10.064;2024-03-17T09:54:48;3.85;;;3.55;;
12163;SDS011;6145;50.192;10.064;2024-03-17T09:57:20;3.97;;;3.58;;
12163;SDS011;6145;50.192;10.064;2024-03-17T09:59:52;4.03;;;3.65;;
12163;SDS011;6145;50.192;10.064;2024-03-17T10:02:20;3.83;;;3.47;;
12163;SDS011;6145;50.192;10.064;2024-03-17T10:04:47;3.75;;;3.40;;
12163;SDS011;6145;50.192;10.064;2024-03-17T10:07:14;5.13;;;3.78;;
12163;SDS011;6145;50.192;10.064;2024-03-17T10:09:43;4.53;;;3.80;;
12163;SDS011;6145;50.192;10.064;2024-03-17T10:12:26;4.63;;;3.72;;
12163;SDS011;6145;50.192;10.064;2024-03-17T10:15:00;3.65;;;3.35;;
12163;SDS011;6145;50.192;10.064;2024-03-17T10:17:30;4.97;;;3.28;;
12163;SDS011;6145;50.192;10.064;2024-03-17T10:25:28;3.33;;;3.13;;
12163;SDS011;6145;50.192;10.064;2024-03-17T10:27:56;3.75;;;3.45;;
12163;SDS011;6145;50.192;10.064;2024-03-17T10:30:24;4.03;;;3.70;;
12163;SDS011;6145;50.192;10.064;2024-03-17T10:32:53;3.60;;;3.40;;
12163;SDS011;6145;50.192;10.064;2024-03-17T10:35:30;3.50;;;3.20;;
12163;SDS011;6145;50.192;10.064;2024-03-17T10:37:59;3.83;;;3.53;;
12163;SDS011;6145;50.192;10.064;2024-03-17T10:40:29;3.95;;;3.22;;
12163;SDS011;6145;50.192;10.064;2024-03-17T10:42:58;5.05;;;3.97;;
12163;SDS011;6145;50.192;10.064;2024-03-17T10:45:27;4.28;;;3.97;;
12163;SDS011;6145;50.192;10.064;2024-03-17T10:47:59;4.78;;;4.13;;
12163;SDS011;6145;50.192;10.064;2024-03-17T10:50:27;4.55;;;4.22;;
12163;SDS011;6145;50.192;10.064;2024-03-17T10:52:58;4.55;;;4.15;;
12163;SDS011;6145;50.192;10.064;2024-03-17T10:55:31;4.25;;;3.95;;
12163;SDS011;6145;50.192;10.064;2024-03-17T10:58:03;5.18;;;4.78;;
12163;SDS011;6145;50.192;10.064;2024-03-17T11:00:33;5.10;;;4.70;;
12163;SDS011;6145;50.192;10.064;2024-03-17T11:03:00;4.43;;;4.03;;
12163;SDS011;6145;50.192;10.064;2024-03-17T11:05:28;4.63;;;4.22;;
12163;SDS011;6145;50.192;10.064;2024-03-17T11:07:58;4.70;;;4.30;;
12163;SDS011;6145;50.192;10.064;2024-03-17T11:10:29;5.03;;;4.53;;
12163;SDS011;6145;50.192;10.064;2024-03-17T11:12:59;4.15;;;3.85;;
12163;SDS011;6145;50.192;10.064;2024-03-17T11:18:29;4.78;;;4.32;;
12163;SDS011;6145;50.192;10.064;2024-03-17T11:21:02;4.25;;;3.95;;
12163;SDS011;6145;50.192;10.064;2024-03-17T11:23:35;5.22;;;3.83;;
12163;SDS011;6145;50.192;10.064;2024-03-17T11:26:05;4.15;;;3.85;;
12163;SDS011;6145;50.192;10.064;2024-03-17T11:28:48;4.20;;;3.90;;
12163;SDS011;6145;50.192;10.064;2024-03-17T11:36:56;4.00;;;3.70;;
12163;SDS011;6145;50.192;10.064;2024-03-17T11:42:16;3.80;;;3.50;;
12163;SDS011;6145;50.192;10.064;2024-03-17T11:44:42;3.90;;;3.60;;
12163;SDS011;6145;50.192;10.064;2024-03-17T11:47:10;4.50;;;4.10;;
12163;SDS011;6145;50.192;10.064;2024-03-17T11:49:36;5.60;;;3.67;;
12163;SDS011;6145;50.192;10.064;2024-03-17T11:52:05;4.68;;;4.20;;
12163;SDS011;6145;50.192;10.064;2024-03-17T11:54:34;4.53;;;4.13;;
12163;SDS011;6145;50.192;10.064;2024-03-17T11:57:02;4.50;;;4.00;;
12163;SDS011;6145;50.192;10.064;2024-03-17T11:59:32;6.50;;;4.40;;
12163;SDS011;6145;50.192;10.064;2024-03-17T12:01:59;3.83;;;3.38;;
12163;SDS011;6145;50.192;10.064;2024-03-17T12:04:26;3.70;;;3.40;;
12163;SDS011;6145;50.192;10.064;2024-03-17T12:06:53;4.25;;;3.85;;
12163;SDS011;6145;50.192;10.064;2024-03-17T12:09:21;4.03;;;3.70;;
12163;SDS011;6145;50.192;10.064;2024-03-17T12:11:50;5.15;;;3.53;;
12163;SDS011;6145;50.192;10.064;2024-03-17T12:14:17;4.15;;;3.75;;
12163;SDS011;6145;50.192;10.064;2024-03-17T12:16:53;3.67;;;3.47;;
12163;SDS011;6145;50.192;10.064;2024-03-17T12:19:19;4.22;;;3.85;;
12163;SDS011;6145;50.192;10.064;2024-03-17T12:21:48;3.85;;;3.55;;
12163;SDS011;6145;50.192;10.064;2024-03-17T12:24:15;5.30;;;4.55;;
12163;SDS011;6145;50.192;10.064;2024-03-17T12:26:44;4.82;;;4.32;;
12163;SDS011;6145;50.192;10.064;2024-03-17T12:29:21;4.20;;;3.85;;
12163;SDS011;6145;50.192;10.064;2024-03-17T12:31:50;4.07;;;3.33;;
12163;SDS011;6145;50.192;10.064;2024-03-17T12:34:19;5.53;;;3.20;;
12163;SDS011;6145;50.192;10.064;2024-03-17T12:36:45;3.38;;;3.13;;
12163;SDS011;6145;50.192;10.064;2024-03-17T12:39:18;3.22;;;2.97;;
12163;SDS011;6145;50.192;10.064;2024-03-17T12:41:45;3.70;;;3.30;;
12163;SDS011;6145;50.192;10.064;2024-03-17T12:44:27;4.00;;;3.20;;
12163;SDS011;6145;50.192;10.064;2024-03-17T12:46:56;4.03;;;3.63;;
12163;SDS011;6145;50.192;10.064;2024-03-17T12:49:25;3.33;;;3.00;;
12163;SDS011;6145;50.192;10.064;2024-03-17T12:51:51;2.97;;;2.67;;
12163;SDS011;6145;50.192;10.064;2024-03-17T12:54:22;3.42;;;3.13;;
12163;SDS011;6145;50.192;10.064;2024-03-17T12:56:49;3.20;;;2.90;;
12163;SDS011;6145;50.192;10.064;2024-03-17T12:59:38;3.92;;;3.42;;
12163;SDS011;6145;50.192;10.064;2024-03-17T13:02:27;6.40;;;3.22;;
12163;SDS011;6145;50.192;10.064;2024-03-17T13:07:48;3.53;;;3.20;;
12163;SDS011;6145;50.192;10.064;2024-03-17T13:10:16;3.77;;;3.40;;
12163;SDS011;6145;50.192;10.064;2024-03-17T13:12:43;5.20;;;3.90;;
12163;SDS011;6145;50.192;10.064;2024-03-17T13:15:11;3.60;;;3.20;;
12163;SDS011;6145;50.192;10.064;2024-03-17T13:17:41;4.57;;;3.77;;
12163;SDS011;6145;50.192;10.064;2024-03-17T13:20:08;4.73;;;3.17;;
12163;SDS011;6145;50.192;10.064;2024-03-17T13:22:40;3.70;;;3.40;;
12163;SDS011;6145;50.192;10.064;2024-03-17T13:25:08;3.63;;;3.20;;
12163;SDS011;6145;50.192;10.064;2024-03-17T13:27:38;3.50;;;3.20;;
12163;SDS011;6145;50.192;10.064;2024-03-17T13:30:05;4.00;;;3.37;;
12163;SDS011;6145;50.192;10.064;2024-03-17T13:32:34;3.63;;;3.13;;
12163;SDS011;6145;50.192;10.064;2024-03-17T13:35:02;3.87;;;3.30;;
12163;SDS011;6145;50.192;10.064;2024-03-17T13:37:29;4.77;;;3.10;;
12163;SDS011;6145;50.192;10.064;2024-03-17T13:39:55;3.93;;;3.63;;
12163;SDS011;6145;50.192;10.064;2024-03-17T13:42:22;4.50;;;3.37;;
12163;SDS011;6145;50.192;10.064;2024-03-17T13:44:48;4.03;;;3.40;;
12163;SDS011;6145;50.192;10.064;2024-03-17T13:47:15;4.07;;;3.20;;
12163;SDS011;6145;50.192;10.064;2024-03-17T13:49:43;3.50;;;3.20;;
12163;SDS011;6145;50.192;10.064;2024-03-17T13:52:11;4.13;;;3.70;;
12163;SDS011;6145;50.192;10.064;2024-03-17T13:54:38;4.00;;;3.13;;
12163;SDS011;6145;50.192;10.064;2024-03-17T13:57:05;3.33;;;3.03;;
12163;SDS011;6145;50.192;10.064;2024-03-17T13:59:32;3.50;;;2.93;;
12163;SDS011;6145;50.192;10.064;2024-03-17T14:01:57;3.97;;;3.30;;
12163;SDS011;6145;50.192;10.064;2024-03-17T14:04:24;4.13;;;2.90;;
12163;SDS011;6145;50.192;10.064;2024-03-17T14:06:51;4.57;;;3.30;;
12163;SDS011;6145;50.192;10.064;2024-03-17T14:09:19;3.33;;;3.03;;
12163;SDS011;6145;50.192;10.064;2024-03-17T14:11:45;4.17;;;3.70;;
12163;SDS011;6145;50.192;10.064;2024-03-17T14:14:14;3.30;;;3.00;;
12163;SDS011;6145;50.192;10.064;2024-03-17T14:16:42;3.70;;;2.67;;
12163;SDS011;6145;50.192;10.064;2024-03-17T14:19:09;3.50;;;2.93;;
12163;SDS011;6145;50.192;10.064;2024-03-17T14:21:36;3.83;;;2.90;;
12163;SDS011;6145;50.192;10.064;2024-03-17T14:24:03;5.10;;;2.70;;
12163;SDS011;6145;50.192;10.064;2024-03-17T14:26:33;3.63;;;2.90;;
12163;SDS011;6145;50.192;10.064;2024-03-17T14:29:00;3.40;;;2.73;;
12163;SDS011;6145;50.192;10.064;2024-03-17T14:31:30;2.67;;;2.43;;
12163;SDS011;6145;50.192;10.064;2024-03-17T14:33:57;4.60;;;2.87;;
12163;SDS011;6145;50.192;10.064;2024-03-17T14:36:24;3.27;;;2.97;;
12163;SDS011;6145;50.192;10.064;2024-03-17T14:38:53;4.17;;;2.80;;
12163;SDS011;6145;50.192;10.064;2024-03-17T14:41:20;3.43;;;2.70;;
12163;SDS011;6145;50.192;10.064;2024-03-17T14:43:48;3.80;;;2.77;;
12163;SDS011;6145;50.192;10.064;2024-03-17T14:46:15;3.17;;;2.87;;
12163;SDS011;6145;50.192;10.064;2024-03-17T14:48:42;3.97;;;2.77;;
12163;SDS011;6145;50.192;10.064;2024-03-17T14:51:09;3.50;;;2.70;;
12163;SDS011;6145;50.192;10.064;2024-03-17T14:53:36;3.10;;;2.80;;
12163;SDS011;6145;50.192;10.064;2024-03-17T14:56:07;3.07;;;2.77;;
12163;SDS011;6145;50.192;10.064;2024-03-17T14:58:34;4.57;;;3.10;;
12163;SDS011;6145;50.192;10.064;2024-03-17T15:01:02;4.07;;;2.70;;
12163;SDS011;6145;50.192;10.064;2024-03-17T15:03:29;3.47;;;2.73;;
12163;SDS011;6145;50.192;10.064;2024-03-17T15:05:56;4.07;;;2.90;;
12163;SDS011;6145;50.192;10.064;2024-03-17T15:08:23;3.13;;;2.63;;
12163;SDS011;6145;50.192;10.064;2024-03-17T15:10:50;3.17;;;2.80;;
12163;SDS011;6145;50.192;10.064;2024-03-17T15:13:19;4.93;;;3.17;;